createdAt,value
2019-04-25T00:01:54.139Z,100218.33
2019-04-25T00:04:23.114Z,100225.37
2019-04-25T00:06:52.183Z,100221.16
2019-04-25T00:09:22.584Z,100222.91
2019-04-25T00:11:52.252Z,100228.68
2019-04-25T00:14:22.612Z,100215.27
2019-04-25T00:16:52.116Z,100214.52
2019-04-25T00:19:21.871Z,100215.83
2019-04-25T00:22:07.310Z,100219.28
2019-04-25T00:24:46.270Z,100221.89
2019-04-25T00:27:14.916Z,100219.80
2019-04-25T00:29:44.986Z,100230.73
2019-04-25T00:32:14.033Z,100235.11
2019-04-25T00:34:43.533Z,100229.89
2019-04-25T00:37:13.995Z,100223.40
2019-04-25T00:39:43.920Z,100226.02
2019-04-25T00:42:13.228Z,100226.46
2019-04-25T00:44:44.533Z,100225.61
2019-04-25T00:47:12.263Z,100223.61
2019-04-25T00:49:43.045Z,100230.99
2019-04-25T00:52:11.700Z,100232.79
2019-04-25T00:54:41.432Z,100233.32
2019-04-25T00:57:12.109Z,100228.05
2019-04-25T00:59:43.950Z,100230.76
2019-04-25T01:02:14.485Z,100228.97
2019-04-25T01:04:43.884Z,100234.64
2019-04-25T01:07:12.725Z,100233.87
2019-04-25T01:09:42.330Z,100233.58
2019-04-25T01:12:12.363Z,100237.55
2019-04-25T01:14:41.995Z,100240.69
2019-04-25T01:17:11.665Z,100251.69
2019-04-25T01:19:40.308Z,100250.18
2019-04-25T01:22:09.609Z,100246.76
2019-04-25T01:24:38.234Z,100251.61
2019-04-25T01:27:07.386Z,100256.45
2019-04-25T01:29:38.591Z,100259.96
2019-04-25T01:32:08.898Z,100259.03
2019-04-25T01:34:42.182Z,100260.38
2019-04-25T01:37:28.500Z,100263.47
2019-04-25T01:40:14.964Z,100267.45
2019-04-25T01:43:01.702Z,100271.44
2019-04-25T01:45:33.835Z,100262.80
2019-04-25T01:48:03.505Z,100261.91
2019-04-25T01:50:33.230Z,100267.57
2019-04-25T01:53:03.383Z,100273.34
2019-04-25T01:55:33.571Z,100267.64
2019-04-25T01:58:03.910Z,100277.73
2019-04-25T02:00:44.853Z,100281.81
2019-04-25T02:03:17.259Z,100276.15
2019-04-25T02:05:45.858Z,100293.98
2019-04-25T02:08:14.406Z,100285.63
2019-04-25T02:10:44.683Z,100286.13
2019-04-25T02:13:20.734Z,100274.87
2019-04-25T02:15:49.498Z,100276.22
2019-04-25T02:18:18.175Z,100282.77
2019-04-25T02:20:46.798Z,100286.45
2019-04-25T02:23:18.139Z,100286.70
2019-04-25T02:25:46.767Z,100287.58
2019-04-25T02:28:15.873Z,100289.40
2019-04-25T02:30:45.437Z,100289.88
2019-04-25T02:33:14.337Z,100292.48
2019-04-25T02:35:46.317Z,100288.88
2019-04-25T02:38:16.576Z,100293.68
2019-04-25T02:40:45.373Z,100289.33
2019-04-25T02:43:14.341Z,100286.30
2019-04-25T02:46:00.604Z,100278.07
2019-04-25T02:48:34.168Z,100280.10
2019-04-25T02:51:05.711Z,100290.02
2019-04-25T02:53:37.367Z,100294.04
2019-04-25T02:56:25.756Z,100285.03
2019-04-25T02:58:36.712Z,100288.27
2019-04-25T03:01:18.056Z,100287.00
2019-04-25T03:03:38.487Z,100300.27
2019-04-25T03:06:09.290Z,100290.66
2019-04-25T03:08:37.762Z,100286.04
2019-04-25T03:11:07.943Z,100297.27
2019-04-25T03:13:36.822Z,100296.80
2019-04-25T03:16:08.953Z,100301.98
2019-04-25T03:18:37.674Z,100302.94
2019-04-25T03:21:17.267Z,100302.67
2019-04-25T03:23:46.390Z,100294.91
2019-04-25T03:26:15.149Z,100296.50
2019-04-25T03:28:43.952Z,100302.02
2019-04-25T03:31:18.623Z,100302.80
2019-04-25T03:33:45.933Z,100306.41
2019-04-25T03:36:13.982Z,100305.19
2019-04-25T03:38:44.218Z,100306.52
2019-04-25T03:41:14.659Z,100304.34
2019-04-25T03:43:44.234Z,100298.84
2019-04-25T03:46:14.299Z,100301.04
2019-04-25T03:48:44.065Z,100305.22
2019-04-25T03:51:15.425Z,100305.66
2019-04-25T03:53:43.781Z,100302.18
2019-04-25T03:56:14.495Z,100308.25
2019-04-25T03:58:43.937Z,100308.66
2019-04-25T04:01:13.837Z,100312.02
2019-04-25T04:03:44.026Z,100309.80
2019-04-25T04:06:15.306Z,100301.91
2019-04-25T04:08:44.298Z,100308.37
2019-04-25T04:11:14.590Z,100308.39
2019-04-25T04:13:44.023Z,100316.08
2019-04-25T04:16:15.612Z,100324.17
2019-04-25T04:18:45.871Z,100328.58
2019-04-25T04:21:33.748Z,100329.36
2019-04-25T04:24:04.138Z,100335.77
2019-04-25T04:26:33.194Z,100329.19
2019-04-25T04:29:03.070Z,100326.04
2019-04-25T04:31:33.479Z,100332.52
2019-04-25T04:34:03.663Z,100329.03
2019-04-25T04:36:33.838Z,100331.54
2019-04-25T04:39:03.880Z,100332.09
2019-04-25T04:41:33.807Z,100336.41
2019-04-25T04:44:04.008Z,100345.92
2019-04-25T04:46:34.028Z,100348.42
2019-04-25T04:49:03.911Z,100353.38
2019-04-25T04:51:33.615Z,100353.58
2019-04-25T04:54:03.431Z,100362.14
2019-04-25T04:56:34.045Z,100363.08
2019-04-25T04:59:03.681Z,100364.41
2019-04-25T05:01:33.905Z,100368.73
2019-04-25T05:04:04.251Z,100373.14
2019-04-25T05:06:49.751Z,100385.21
2019-04-25T05:09:20.107Z,100388.39
2019-04-25T05:11:48.876Z,100394.47
2019-04-25T05:14:20.599Z,100389.83
2019-04-25T05:16:53.270Z,100389.61
2019-04-25T05:19:23.935Z,100391.35
2019-04-25T05:21:53.734Z,100390.94
2019-04-25T05:24:24.584Z,100397.42
2019-04-25T05:26:54.013Z,100392.21
2019-04-25T05:29:24.130Z,100384.73
2019-04-25T05:31:54.281Z,100385.94
2019-04-25T05:34:25.647Z,100389.27
2019-04-25T05:36:53.884Z,100386.82
2019-04-25T05:39:25.123Z,100396.23
2019-04-25T05:41:54.760Z,100399.25
2019-04-25T05:44:26.407Z,100397.13
2019-04-25T05:46:56.742Z,100392.68
2019-04-25T05:49:26.308Z,100392.45
2019-04-25T05:51:55.280Z,100381.85
2019-04-25T05:54:24.797Z,100387.61
2019-04-25T05:56:54.327Z,100383.78
2019-04-25T05:59:25.534Z,100390.14
2019-04-25T06:01:54.223Z,100389.53
2019-04-25T06:04:29.138Z,100388.77
2019-04-25T06:06:59.872Z,100384.27
2019-04-25T06:09:38.118Z,100378.42
2019-04-25T06:12:19.847Z,100383.13
2019-04-25T06:14:44.406Z,100382.66
2019-04-25T06:17:14.914Z,100382.39
2019-04-25T06:19:50.035Z,100379.56
2019-04-25T06:22:20.910Z,100385.47
2019-04-25T06:24:55.572Z,100384.72
2019-04-25T06:27:27.094Z,100392.30
2019-04-25T06:30:04.364Z,100392.84
2019-04-25T06:32:39.482Z,100401.05
2019-04-25T06:35:14.259Z,100393.96
2019-04-25T06:37:43.948Z,100389.59
2019-04-25T06:40:14.024Z,100388.23
2019-04-25T06:42:43.839Z,100385.48
2019-04-25T06:45:34.443Z,100385.48
2019-04-25T06:48:04.890Z,100383.13
2019-04-25T06:50:35.533Z,100382.76
2019-04-25T06:53:07.141Z,100382.91
2019-04-25T06:55:35.989Z,100380.66
2019-04-25T06:58:11.968Z,100383.86
2019-04-25T07:00:42.614Z,100390.27
2019-04-25T07:03:10.095Z,100397.13
2019-04-25T07:05:40.455Z,100399.11
2019-04-25T07:08:09.114Z,100393.09
2019-04-25T07:10:37.756Z,100381.86
2019-04-25T07:13:09.562Z,100392.27
2019-04-25T07:15:38.329Z,100391.38
2019-04-25T07:18:08.336Z,100386.16
2019-04-25T07:20:40.101Z,100390.14
2019-04-25T07:23:08.983Z,100388.28
2019-04-25T07:25:39.384Z,100384.66
2019-04-25T07:28:24.099Z,100374.67
2019-04-25T07:30:57.551Z,100370.39
2019-04-25T07:33:29.525Z,100365.19
2019-04-25T07:36:01.591Z,100365.13
2019-04-25T07:38:34.028Z,100370.62
2019-04-25T07:41:03.869Z,100376.17
2019-04-25T07:43:38.571Z,100372.84
2019-04-25T07:46:14.692Z,100369.59
2019-04-25T07:48:43.931Z,100367.23
2019-04-25T07:51:16.181Z,100367.33
2019-04-25T07:53:43.648Z,100372.30
2019-04-25T07:56:14.177Z,100359.75
2019-04-25T07:58:50.582Z,100362.00
2019-04-25T08:01:15.210Z,100354.79
2019-04-25T08:03:44.188Z,100353.25
2019-04-25T08:06:13.799Z,100342.55
2019-04-25T08:08:43.670Z,100333.83
2019-04-25T08:11:18.773Z,100330.22
2019-04-25T08:14:04.199Z,100326.34
2019-04-25T08:16:35.635Z,100313.03
2019-04-25T08:19:07.797Z,100311.94
2019-04-25T08:21:39.560Z,100314.48
2019-04-25T08:24:08.229Z,100328.78
2019-04-25T08:26:37.586Z,100331.94
2019-04-25T08:29:09.030Z,100329.78
2019-04-25T08:31:37.800Z,100318.63
2019-04-25T08:34:14.466Z,100320.88
2019-04-25T08:36:40.227Z,100318.94
2019-04-25T08:39:11.133Z,100328.17
2019-04-25T08:41:39.892Z,100330.80
2019-04-25T08:44:08.776Z,100318.31
2019-04-25T08:46:38.502Z,100325.45
2019-04-25T08:49:14.001Z,100318.16
2019-04-25T08:51:44.583Z,100311.00
2019-04-25T08:54:26.726Z,100310.15
2019-04-25T08:56:57.049Z,100306.30
2019-04-25T08:59:47.238Z,100300.88
2019-04-25T09:02:20.382Z,100295.73
2019-04-25T09:04:56.246Z,100287.11
2019-04-25T09:07:24.946Z,100273.53
2019-04-25T09:09:56.875Z,100275.17
2019-04-25T09:12:26.004Z,100277.53
2019-04-25T09:14:54.725Z,100274.49
2019-04-25T09:17:24.302Z,100267.48
2019-04-25T09:19:54.298Z,100258.59
2019-04-25T09:22:26.465Z,100256.03
2019-04-25T09:24:55.683Z,100256.50
2019-04-25T09:27:24.223Z,100253.36
2019-04-25T09:29:55.718Z,100246.70
2019-04-25T09:32:24.356Z,100236.33
2019-04-25T09:34:54.429Z,100237.66
2019-04-25T09:37:24.625Z,100234.08
2019-04-25T09:39:55.824Z,100228.52
2019-04-25T09:42:24.550Z,100223.95
2019-04-25T09:45:00.888Z,100218.00
2019-04-25T09:47:29.589Z,100221.19
2019-04-25T09:49:58.492Z,100211.97
2019-04-25T09:52:27.313Z,100206.03
2019-04-25T09:54:57.585Z,100208.08
2019-04-25T09:57:40.931Z,100204.67
2019-04-25T10:00:13.349Z,100204.20
2019-04-25T10:02:47.666Z,100199.84
2019-04-25T10:05:16.280Z,100197.66
2019-04-25T10:07:48.971Z,100193.51
2019-04-25T10:10:17.611Z,100190.79
2019-04-25T10:12:47.424Z,100185.66
2019-04-25T10:15:43.005Z,100189.47
2019-04-25T10:18:14.234Z,100191.53
2019-04-25T10:20:43.492Z,100183.19
2019-04-25T10:23:15.425Z,100174.02
2019-04-25T10:25:45.018Z,100166.92
2019-04-25T10:28:13.813Z,100159.39
2019-04-25T10:30:43.009Z,100159.06
2019-04-25T10:33:14.224Z,100150.80
2019-04-25T10:35:50.806Z,100150.94
2019-04-25T10:38:14.658Z,100146.73
2019-04-25T10:40:46.492Z,100149.39
2019-04-25T10:43:16.210Z,100148.23
2019-04-25T10:45:46.310Z,100150.18
2019-04-25T10:48:15.950Z,100150.51
2019-04-25T10:50:45.871Z,100144.34
2019-04-25T10:53:15.232Z,100136.88
2019-04-25T10:55:45.457Z,100134.39
2019-04-25T10:58:14.281Z,100135.05
2019-04-25T11:00:46.196Z,100133.66
2019-04-25T11:03:36.096Z,100122.89
2019-04-25T11:06:06.707Z,100119.27
2019-04-25T11:08:38.204Z,100120.64
2019-04-25T11:11:06.935Z,100122.86
2019-04-25T11:13:36.135Z,100123.23
2019-04-25T11:16:06.383Z,100122.97
2019-04-25T11:18:37.558Z,100110.95
2019-04-25T11:21:06.233Z,100111.39
2019-04-25T11:23:34.897Z,100103.98
2019-04-25T11:26:03.916Z,100092.37
2019-04-25T11:28:33.769Z,100090.21
2019-04-25T11:31:03.867Z,100087.55
2019-04-25T11:33:33.790Z,100091.66
2019-04-25T11:36:04.099Z,100086.29
2019-04-25T11:38:49.481Z,100089.20
2019-04-25T11:41:19.701Z,100094.06
2019-04-25T11:43:48.719Z,100082.02
2019-04-25T11:46:17.920Z,100083.23
2019-04-25T11:48:46.546Z,100086.05
2019-04-25T11:51:19.902Z,100094.50
2019-04-25T11:53:50.052Z,100094.89
2019-04-25T11:56:18.693Z,100096.20
2019-04-25T11:58:48.102Z,100087.25
2019-04-25T12:01:17.803Z,100082.17
2019-04-25T12:03:48.666Z,100079.91
2019-04-25T12:06:16.964Z,100074.34
2019-04-25T12:08:46.811Z,100082.64
2019-04-25T12:11:18.798Z,100068.09
2019-04-25T12:13:48.109Z,100065.31
2019-04-25T12:16:17.479Z,100063.07
2019-04-25T12:18:48.804Z,100059.50
2019-04-25T12:21:16.645Z,100064.03
2019-04-25T12:23:47.367Z,100062.03
2019-04-25T12:26:15.546Z,100062.52
2019-04-25T12:28:44.983Z,100055.50
2019-04-25T12:31:14.822Z,100064.59
2019-04-25T12:33:48.600Z,100062.40
2019-04-25T12:36:17.026Z,100059.12
2019-04-25T12:38:46.123Z,100058.39
2019-04-25T12:41:14.835Z,100052.03
2019-04-25T12:43:45.767Z,100038.47
2019-04-25T12:46:34.856Z,100039.34
2019-04-25T12:49:03.750Z,100038.55
2019-04-25T12:51:35.086Z,100033.94
2019-04-25T12:54:03.944Z,100037.13
2019-04-25T12:56:34.117Z,100038.62
2019-04-25T12:59:02.691Z,100035.25
2019-04-25T13:01:31.270Z,100033.87
2019-04-25T13:03:59.865Z,100030.42
2019-04-25T13:06:28.466Z,100029.20
2019-04-25T13:08:57.099Z,100017.89
2019-04-25T13:11:25.709Z,100011.39
2019-04-25T13:13:54.199Z,100011.07
2019-04-25T13:16:25.417Z,100004.45
2019-04-25T13:18:54.019Z,99997.76
2019-04-25T13:21:23.473Z,100001.02
2019-04-25T13:23:52.059Z,99996.28
2019-04-25T13:26:24.675Z,100000.44
2019-04-25T13:28:54.322Z,99999.48
2019-04-25T13:31:40.703Z,99987.97
2019-04-25T13:34:35.380Z,99980.17
2019-04-25T13:36:54.185Z,99979.54
2019-04-25T13:39:24.169Z,99976.45
2019-04-25T13:41:54.336Z,99983.50
2019-04-25T13:44:26.211Z,99984.88
2019-04-25T13:46:54.817Z,99975.05
2019-04-25T13:49:23.464Z,99982.20
2019-04-25T13:51:52.092Z,99968.16
2019-04-25T13:54:20.884Z,99970.52
2019-04-25T13:56:50.443Z,99963.31
2019-04-25T13:59:19.075Z,99965.27
2019-04-25T14:01:48.659Z,99963.80
2019-04-25T14:04:20.771Z,99959.38
2019-04-25T14:06:49.386Z,99959.36
2019-04-25T14:09:18.203Z,99958.42
2019-04-25T14:11:46.853Z,99958.46
2019-04-25T14:14:15.567Z,99958.97
2019-04-25T14:17:02.999Z,99958.77
2019-04-25T14:19:38.715Z,99964.41
2019-04-25T14:22:10.370Z,99959.01
2019-04-25T14:24:39.003Z,99970.48
2019-04-25T14:27:14.697Z,99971.45
2019-04-25T14:29:43.729Z,99965.52
2019-04-25T14:32:15.607Z,99961.98
2019-04-25T14:34:44.229Z,99960.45
2019-04-25T14:37:12.885Z,99970.72
2019-04-25T14:39:41.509Z,99960.64
2019-04-25T14:42:10.346Z,99958.13
2019-04-25T14:44:38.933Z,99950.12
2019-04-25T14:47:07.625Z,99945.05
2019-04-25T14:49:36.252Z,99935.05
2019-04-25T14:52:04.924Z,99937.69
2019-04-25T14:54:36.085Z,99941.48
2019-04-25T14:57:07.220Z,99936.59
2019-04-25T14:59:35.967Z,99939.59
2019-04-25T15:02:04.856Z,99933.33
2019-04-25T15:04:33.482Z,99934.73
2019-04-25T15:07:02.147Z,99936.98
2019-04-25T15:09:31.075Z,99935.88
2019-04-25T15:11:59.644Z,99929.57
2019-04-25T15:14:29.233Z,99924.13
2019-04-25T15:16:57.988Z,99917.63
2019-04-25T15:19:27.519Z,99921.24
2019-04-25T15:21:56.191Z,99921.61
2019-04-25T15:24:25.108Z,99926.66
2019-04-25T15:26:53.790Z,99928.03
2019-04-25T15:29:22.344Z,99921.23
2019-04-25T15:31:56.131Z,99921.68
2019-04-25T15:34:22.917Z,99917.87
2019-04-25T15:37:01.871Z,99905.50
2019-04-25T15:39:47.262Z,99904.65
2019-04-25T15:42:17.573Z,99908.15
2019-04-25T15:45:05.969Z,99905.88
2019-04-25T15:47:34.631Z,99913.66
2019-04-25T15:50:04.831Z,99913.23
2019-04-25T15:52:33.805Z,99913.14
2019-04-25T15:55:07.285Z,99915.71
2019-04-25T15:57:35.587Z,99913.31
2019-04-25T16:00:08.158Z,99911.37
2019-04-25T16:02:36.788Z,99909.80
2019-04-25T16:05:07.530Z,99911.21
2019-04-25T16:07:36.232Z,99921.72
2019-04-25T16:10:07.572Z,99921.20
2019-04-25T16:12:36.060Z,99929.55
2019-04-25T16:15:06.589Z,99934.50
2019-04-25T16:17:35.308Z,99932.40
2019-04-25T16:20:05.036Z,99929.38
2019-04-25T16:22:34.403Z,99928.02
2019-04-25T16:25:03.728Z,99926.73
2019-04-25T16:27:32.644Z,99931.70
2019-04-25T16:30:01.383Z,99928.10
2019-04-25T16:32:30.418Z,99929.11
2019-04-25T16:34:59.104Z,99930.03
2019-04-25T16:37:27.991Z,99934.59
2019-04-25T16:39:57.670Z,99925.55
2019-04-25T16:42:26.307Z,99930.66
2019-04-25T16:44:55.154Z,99935.48
2019-04-25T16:47:25.495Z,99934.90
2019-04-25T16:49:54.106Z,99934.39
2019-04-25T16:52:27.471Z,99930.30
2019-04-25T16:54:56.108Z,99931.42
2019-04-25T16:57:24.733Z,99931.02
2019-04-25T16:59:53.353Z,99931.89
2019-04-25T17:02:33.019Z,99934.14
2019-04-25T17:04:53.914Z,99937.07
2019-04-25T17:07:22.540Z,99937.86
2019-04-25T17:09:53.885Z,99937.11
2019-04-25T17:12:25.543Z,99938.16
2019-04-25T17:15:05.046Z,99946.48
2019-04-25T17:17:38.103Z,99949.38
2019-04-25T17:20:10.365Z,99956.49
2019-04-25T17:22:41.963Z,99958.95
2019-04-25T17:25:11.355Z,99961.70
2019-04-25T17:27:40.082Z,99963.37
2019-04-25T17:30:09.465Z,99964.77
2019-04-25T17:32:50.377Z,99967.77
2019-04-25T17:35:11.958Z,99971.91
2019-04-25T17:37:44.625Z,99969.84
2019-04-25T17:40:17.658Z,99964.10
2019-04-25T17:42:46.306Z,99973.66
2019-04-25T17:45:19.400Z,99971.55
2019-04-25T17:47:54.551Z,99979.08
2019-04-25T17:50:18.312Z,99981.42
2019-04-25T17:52:46.919Z,99991.73
2019-04-25T17:55:15.557Z,99993.54
2019-04-25T17:57:44.969Z,99999.52
2019-04-25T18:00:17.185Z,99997.04
2019-04-25T18:02:45.865Z,99996.94
2019-04-25T18:05:14.494Z,100006.61
2019-04-25T18:07:43.071Z,100014.13
2019-04-25T18:10:13.119Z,100018.09
2019-04-25T18:12:42.211Z,100023.26
2019-04-25T18:15:12.619Z,100022.88
2019-04-25T18:17:41.118Z,100030.70
2019-04-25T18:20:11.505Z,100016.56
2019-04-25T18:22:41.817Z,100018.16
2019-04-25T18:25:15.144Z,100020.13
2019-04-25T18:27:46.276Z,100010.30
2019-04-25T18:30:15.068Z,100017.66
2019-04-25T18:32:45.362Z,100022.70
2019-04-25T18:35:15.635Z,100024.23
2019-04-25T18:37:45.877Z,100018.95
2019-04-25T18:40:18.911Z,100037.84
2019-04-25T18:43:01.136Z,100037.84
2019-04-25T18:45:31.273Z,100038.50
2019-04-25T18:47:59.780Z,100045.30
2019-04-25T18:50:29.982Z,100043.70
2019-04-25T18:53:00.245Z,100043.45
2019-04-25T18:55:31.579Z,100044.73
2019-04-25T18:58:04.673Z,100044.73
2019-04-25T19:00:52.810Z,100038.52
2019-04-25T19:03:39.444Z,100046.44
2019-04-25T19:06:12.671Z,100046.44
2019-04-25T19:08:41.192Z,100045.10
2019-04-25T19:11:09.897Z,100040.21
2019-04-25T19:13:38.810Z,100031.39
2019-04-25T19:16:08.318Z,100040.43
2019-04-25T19:18:36.950Z,100040.61
2019-04-25T19:21:06.094Z,100043.33
2019-04-25T19:23:34.822Z,100041.66
2019-04-25T19:26:03.394Z,100046.12
2019-04-25T19:28:32.066Z,100034.03
2019-04-25T19:31:00.760Z,100036.91
2019-04-25T19:33:35.616Z,100030.83
2019-04-25T19:35:59.657Z,100030.83
2019-04-25T19:38:28.286Z,100034.52
2019-04-25T19:41:07.533Z,100032.67
2019-04-25T19:43:37.825Z,100032.67
2019-04-25T19:46:06.474Z,100028.52
2019-04-25T19:48:35.125Z,100028.52
2019-04-25T19:51:03.841Z,100026.30
2019-04-25T19:53:32.492Z,100024.25
2019-04-25T19:56:04.190Z,100024.25
2019-04-25T19:58:32.769Z,100018.89
2019-04-25T20:01:01.415Z,100020.92
2019-04-25T20:03:52.264Z,100019.47
2019-04-25T20:06:18.706Z,100016.27
2019-04-25T20:08:48.979Z,100015.79
2019-04-25T20:11:19.191Z,100015.79
2019-04-25T20:13:47.756Z,100020.55
2019-04-25T20:16:16.437Z,100031.20
2019-04-25T20:18:45.659Z,100031.20
2019-04-25T20:21:14.320Z,100026.87
2019-04-25T20:23:43.784Z,100024.66
2019-04-25T20:26:13.330Z,100024.66
2019-04-25T20:28:41.911Z,100021.69
2019-04-25T20:31:10.547Z,100026.06
2019-04-25T20:33:39.186Z,100020.51
2019-04-25T20:36:17.221Z,100016.48
2019-04-25T20:38:38.086Z,100019.36
2019-04-25T20:41:06.769Z,100019.80
2019-04-25T20:43:35.380Z,100025.83
2019-04-25T20:46:04.018Z,100025.83
2019-04-25T20:48:32.586Z,100031.81
2019-04-25T20:51:01.261Z,100039.33
2019-04-25T20:53:29.830Z,100038.11
2019-04-25T20:55:58.502Z,100032.35
2019-04-25T20:58:27.066Z,100030.14
2019-04-25T21:00:57.947Z,100034.80
2019-04-25T21:03:26.616Z,100034.67
2019-04-25T21:05:57.233Z,100036.86
2019-04-25T21:08:25.858Z,100036.20
2019-04-25T21:10:54.426Z,100037.29
2019-04-25T21:13:24.710Z,100036.55
2019-04-25T21:16:03.462Z,100034.92
2019-04-25T21:18:36.446Z,100032.59
2019-04-25T21:21:05.077Z,100034.30
2019-04-25T21:23:36.354Z,100039.27
2019-04-25T21:26:04.995Z,100039.55
2019-04-25T21:28:33.560Z,100046.48
2019-04-25T21:31:03.185Z,100047.20
2019-04-25T21:33:32.010Z,100043.50
2019-04-25T21:36:03.600Z,100040.22
2019-04-25T21:38:32.610Z,100043.84
2019-04-25T21:41:06.044Z,100043.82
2019-04-25T21:43:42.663Z,100039.19
2019-04-25T21:46:13.598Z,100037.41
2019-04-25T21:48:42.675Z,100032.64
2019-04-25T21:51:28.894Z,100032.12
2019-04-25T21:53:57.748Z,100038.92
2019-04-25T21:56:29.153Z,100043.22
2019-04-25T21:58:57.824Z,100042.58
2019-04-25T22:01:35.516Z,100044.13
2019-04-25T22:04:06.037Z,100040.91
2019-04-25T22:06:35.061Z,100048.69
2019-04-25T22:09:06.884Z,100052.17
2019-04-25T22:11:35.661Z,100050.13
2019-04-25T22:14:05.434Z,100048.42
2019-04-25T22:16:34.400Z,100048.18
2019-04-25T22:19:06.405Z,100048.69
2019-04-25T22:21:38.265Z,100049.77
2019-04-25T22:24:12.814Z,100047.68
2019-04-25T22:26:36.122Z,100045.83
2019-04-25T22:29:05.522Z,100042.18
2019-04-25T22:31:35.865Z,100048.30
2019-04-25T22:34:18.011Z,100048.88
2019-04-25T22:36:46.924Z,100045.45
2019-04-25T22:39:15.603Z,100039.23
2019-04-25T22:41:47.015Z,100048.33
2019-04-25T22:44:17.868Z,100049.64
2019-04-25T22:46:46.802Z,100050.75
2019-04-25T22:49:15.446Z,100048.38
2019-04-25T22:51:44.111Z,100044.68
2019-04-25T22:54:13.329Z,100044.81
2019-04-25T22:56:42.016Z,100040.23
2019-04-25T22:59:11.102Z,100045.66
2019-04-25T23:01:50.253Z,100051.68
2019-04-25T23:04:35.737Z,100043.05
2019-04-25T23:07:04.452Z,100044.83
2019-04-25T23:09:34.667Z,100044.63
2019-04-25T23:12:03.915Z,100044.63
2019-04-25T23:14:33.658Z,100041.68
2019-04-25T23:17:05.101Z,100042.96
2019-04-25T23:19:34.693Z,100041.02
2019-04-25T23:22:04.768Z,100034.14
2019-04-25T23:24:35.305Z,100033.22
2019-04-25T23:27:06.330Z,100028.06
2019-04-25T23:29:34.900Z,100024.52
2019-04-25T23:32:04.035Z,100018.67
2019-04-25T23:34:32.945Z,100010.87
2019-04-25T23:37:03.506Z,100012.58
2019-04-25T23:39:32.001Z,100010.85
2019-04-25T23:42:00.661Z,100010.95
2019-04-25T23:44:29.164Z,100019.29
2019-04-25T23:46:58.013Z,100022.42
2019-04-25T23:49:26.583Z,100018.70
2019-04-25T23:51:55.435Z,100023.26
2019-04-25T23:54:24.110Z,100021.95
2019-04-25T23:56:52.746Z,100015.37
2019-04-25T23:59:21.322Z,100012.00
